Time;durP1;ratioP1;P1;durP2;ratioP2;P2;SDS_P1;SDS_P2;PMS_P1;PMS_P2;Temp;Humidity;BMP_temperature;BMP_pressure;BME280_temperature;BME280_humidity;BME280_pressure;Samples;Min_cycle;Max_cycle;Signal;HPM_P1;HPM_P2
2024/01/27 00:01:39;;;;;;;34.42;24.08;;;13.00;85.90;;;;;;5072715;28;20033;-78
2024/01/27 00:04:05;;;;;;;36.10;24.67;;;12.90;85.60;;;;;;5073417;28;20095;-76
2024/01/27 00:06:30;;;;;;;33.72;24.02;;;12.90;85.60;;;;;;5070518;28;20106;-77
2024/01/27 00:08:56;;;;;;;36.42;24.58;;;12.90;85.90;;;;;;5066576;28;20048;-76
2024/01/27 00:11:24;;;;;;;34.63;24.00;;;13.00;85.90;;;;;;5072870;28;20086;-76
2024/01/27 00:13:50;;;;;;;35.97;24.92;;;13.00;85.50;;;;;;5073114;28;20028;-77
2024/01/27 00:16:16;;;;;;;36.15;23.95;;;13.00;86.10;;;;;;5073248;28;20037;-76
2024/01/27 00:18:41;;;;;;;35.58;23.40;;;13.00;85.60;;;;;;5073492;28;20098;-71
2024/01/27 00:21:07;;;;;;;32.78;23.45;;;13.00;85.50;;;;;;5073655;28;20093;-78
2024/01/27 00:23:34;;;;;;;32.78;23.75;;;12.90;85.50;;;;;;5072643;28;20048;-76
2024/01/27 00:26:00;;;;;;;31.73;22.30;;;12.90;85.70;;;;;;5072752;28;20094;-76
2024/01/27 00:28:26;;;;;;;31.95;23.05;;;12.80;85.80;;;;;;5072851;28;20483;-77
2024/01/27 00:30:52;;;;;;;32.70;23.08;;;12.80;85.80;;;;;;5072850;28;20032;-78
2024/01/27 00:33:18;;;;;;;37.10;25.33;;;12.70;86.00;;;;;;5072414;28;20037;-76
2024/01/27 00:35:43;;;;;;;31.25;22.17;;;12.80;85.90;;;;;;5072341;28;20410;-76
2024/01/27 00:38:09;;;;;;;31.27;22.67;;;12.80;85.90;;;;;;5072241;28;20135;-76
2024/01/27 00:40:35;;;;;;;34.63;22.25;;;12.80;85.90;;;;;;5073035;28;20109;-75
2024/01/27 00:43:03;;;;;;;29.98;21.00;;;12.80;85.80;;;;;;5072158;28;20040;-77
2024/01/27 00:45:30;;;;;;;27.90;20.58;;;12.80;85.90;;;;;;5071005;28;20033;-76
2024/01/27 00:47:58;;;;;;;31.00;20.75;;;12.70;85.80;;;;;;5072423;28;20047;-76
2024/01/27 00:50:24;;;;;;;31.70;22.88;;;12.70;86.10;;;;;;5072578;28;20103;-77
2024/01/27 00:52:49;;;;;;;28.17;21.27;;;12.60;86.00;;;;;;5072481;28;20461;-76
2024/01/27 00:55:15;;;;;;;34.40;23.02;;;12.60;86.10;;;;;;5072214;28;20124;-76
2024/01/27 00:57:41;;;;;;;32.20;21.80;;;12.40;86.10;;;;;;5053829;28;20037;-77
2024/01/27 01:00:08;;;;;;;32.33;21.60;;;12.40;86.30;;;;;;5072427;28;20036;-76
2024/01/27 01:02:34;;;;;;;32.00;20.80;;;12.40;86.40;;;;;;5071926;28;20076;-75
2024/01/27 01:05:00;;;;;;;29.23;20.42;;;12.40;86.40;;;;;;5072104;28;20090;-76
2024/01/27 01:07:26;;;;;;;34.95;22.30;;;12.50;86.40;;;;;;5074154;28;20115;-77
2024/01/27 01:09:51;;;;;;;31.13;21.27;;;12.60;86.40;;;;;;5076024;28;20036;-75
2024/01/27 01:12:17;;;;;;;37.88;21.38;;;12.50;86.30;;;;;;5075839;28;20478;-76
2024/01/27 01:14:44;;;;;;;30.33;20.55;;;12.60;86.30;;;;;;5076108;28;20051;-76
2024/01/27 01:17:09;;;;;;;29.33;21.02;;;12.60;86.40;;;;;;5075984;28;20045;-77
2024/01/27 01:19:37;;;;;;;26.58;20.38;;;12.70;86.30;;;;;;5075968;28;20441;-78
2024/01/27 01:22:04;;;;;;;29.65;21.02;;;12.80;86.20;;;;;;5076196;28;20040;-78
2024/01/27 01:24:30;;;;;;;32.13;20.25;;;12.80;86.00;;;;;;5075879;28;20405;-76
2024/01/27 01:26:56;;;;;;;28.77;19.73;;;12.90;86.10;;;;;;5075779;28;20052;-76
2024/01/27 01:29:22;;;;;;;35.63;21.23;;;12.90;85.90;;;;;;5073989;28;20035;-76
2024/01/27 01:31:48;;;;;;;29.33;20.90;;;12.90;85.80;;;;;;5057794;28;20398;-76
2024/01/27 01:34:14;;;;;;;33.17;21.05;;;12.80;85.80;;;;;;5070416;28;20029;-77
2024/01/27 01:36:40;;;;;;;25.77;20.05;;;12.80;85.80;;;;;;5055519;28;20084;-75
2024/01/27 01:39:07;;;;;;;28.38;19.88;;;12.80;85.80;;;;;;5055695;28;20040;-77
2024/01/27 01:41:32;;;;;;;27.15;20.92;;;12.80;85.80;;;;;;5061925;28;20063;-77
2024/01/27 01:43:59;;;;;;;32.15;20.50;;;12.90;85.70;;;;;;5075634;28;20508;-77
2024/01/27 01:46:25;;;;;;;27.95;19.23;;;12.80;85.60;;;;;;5075522;28;20138;-76
2024/01/27 01:48:50;;;;;;;25.75;19.30;;;12.80;85.80;;;;;;5075280;28;20032;-75
2024/01/27 01:51:16;;;;;;;29.73;18.98;;;12.80;85.60;;;;;;5075270;28;20504;-76
2024/01/27 01:53:45;;;;;;;28.85;20.10;;;12.80;85.60;;;;;;5075274;28;20024;-76
2024/01/27 01:56:13;;;;;;;29.67;20.15;;;12.80;85.50;;;;;;5075276;28;20037;-76
2024/01/27 01:58:39;;;;;;;29.17;19.48;;;12.80;85.70;;;;;;5057395;28;20135;-76
2024/01/27 02:01:04;;;;;;;26.23;19.75;;;12.80;85.70;;;;;;5056178;28;20044;-76
2024/01/27 02:03:30;;;;;;;27.60;19.13;;;12.80;85.60;;;;;;5056687;28;20033;-76
2024/01/27 02:05:56;;;;;;;27.52;19.42;;;12.80;85.50;;;;;;5055206;28;20025;-77
2024/01/27 02:08:22;;;;;;;29.15;19.05;;;12.80;85.50;;;;;;5055196;28;20065;-77
2024/01/27 02:10:47;;;;;;;23.83;18.15;;;12.80;85.70;;;;;;5055111;28;20037;-76
2024/01/27 02:13:31;;;;;;;28.08;17.83;;;12.80;85.50;;;;;;5055166;28;20100;-76
2024/01/27 02:15:57;;;;;;;26.00;19.02;;;12.80;85.60;;;;;;5055137;28;20044;-76
2024/01/27 02:18:22;;;;;;;29.55;18.50;;;12.80;85.40;;;;;;5054827;28;20040;-76
2024/01/27 02:20:48;;;;;;;25.33;18.25;;;12.80;85.50;;;;;;5054773;28;20033;-77
2024/01/27 02:23:14;;;;;;;25.40;17.38;;;12.80;85.20;;;;;;5057589;28;20060;-77
2024/01/27 02:25:40;;;;;;;30.90;19.70;;;12.70;85.40;;;;;;5074830;28;20055;-77
2024/01/27 02:28:05;;;;;;;25.55;18.38;;;12.70;85.30;;;;;;5074635;28;20056;-77
2024/01/27 02:30:31;;;;;;;27.58;18.83;;;12.70;85.40;;;;;;5074503;28;20119;-76
2024/01/27 02:32:58;;;;;;;27.85;18.98;;;12.70;85.40;;;;;;5074363;28;20033;-75
2024/01/27 02:35:24;;;;;;;25.40;18.67;;;12.70;85.40;;;;;;5074421;28;20035;-77
2024/01/27 02:37:49;;;;;;;25.75;18.33;;;12.70;85.40;;;;;;5074272;28;20040;-76
2024/01/27 02:40:15;;;;;;;25.63;18.33;;;12.70;85.40;;;;;;5074348;28;20033;-75
2024/01/27 02:42:44;;;;;;;26.85;18.83;;;12.80;85.50;;;;;;5074124;28;20040;-76
2024/01/27 02:45:11;;;;;;;25.67;18.92;;;12.70;85.30;;;;;;5056211;28;20056;-76
2024/01/27 02:47:37;;;;;;;27.92;19.52;;;12.70;85.40;;;;;;5074084;28;20028;-76
2024/01/27 02:50:03;;;;;;;24.98;18.33;;;12.70;85.40;;;;;;5076427;28;20047;-76
2024/01/27 02:52:29;;;;;;;25.58;18.95;;;12.70;85.50;;;;;;5075221;28;20033;-76
2024/01/27 02:54:55;;;;;;;25.48;18.60;;;12.70;85.40;;;;;;5074218;28;20043;-77
2024/01/27 02:57:21;;;;;;;27.45;19.42;;;12.70;85.60;;;;;;5055906;28;20047;-76
2024/01/27 02:59:47;;;;;;;22.73;18.05;;;12.70;85.50;;;;;;5073950;28;20413;-77
2024/01/27 03:02:13;;;;;;;30.85;19.35;;;12.70;85.60;;;;;;5075038;28;20064;-77
2024/01/27 03:04:39;;;;;;;24.50;18.20;;;12.80;85.70;;;;;;5075962;28;20474;-76
2024/01/27 03:07:05;;;;;;;29.10;18.17;;;12.80;85.40;;;;;;5075019;28;20082;-77
2024/01/27 03:09:31;;;;;;;23.63;17.50;;;12.80;85.50;;;;;;5073456;28;20104;-77
2024/01/27 03:11:57;;;;;;;26.15;17.55;;;12.80;85.40;;;;;;5073487;28;20025;-76
2024/01/27 03:14:23;;;;;;;25.70;17.80;;;12.80;85.40;;;;;;5073621;28;20624;-77
2024/01/27 03:16:49;;;;;;;27.52;18.60;;;12.80;85.30;;;;;;5073911;28;20073;-77
2024/01/27 03:19:14;;;;;;;26.40;18.77;;;12.80;85.40;;;;;;5073999;28;20390;-76
2024/01/27 03:21:40;;;;;;;28.80;19.40;;;12.80;85.40;;;;;;5073518;28;20478;-75
2024/01/27 03:24:06;;;;;;;23.83;18.08;;;12.80;85.50;;;;;;5073477;28;20132;-76
2024/01/27 03:26:32;;;;;;;26.63;18.75;;;12.80;85.40;;;;;;5055262;28;20438;-76
2024/01/27 03:28:57;;;;;;;26.13;18.00;;;12.80;85.20;;;;;;5073311;28;20036;-77
2024/01/27 03:31:23;;;;;;;25.70;18.60;;;12.70;85.30;;;;;;5073364;28;20030;-77
2024/01/27 03:33:49;;;;;;;28.35;17.85;;;12.60;85.40;;;;;;5073646;28;20036;-75
2024/01/27 03:36:15;;;;;;;27.38;18.95;;;12.60;85.50;;;;;;5073504;28;20374;-75
2024/01/27 03:38:41;;;;;;;25.60;18.17;;;12.70;85.50;;;;;;5073247;28;20134;-76
2024/01/27 03:41:07;;;;;;;26.85;18.38;;;12.70;85.50;;;;;;5073440;28;20083;-77
2024/01/27 03:43:36;;;;;;;25.15;18.85;;;12.70;85.60;;;;;;5073229;28;20114;-76
2024/01/27 03:46:03;;;;;;;30.05;18.83;;;12.70;85.60;;;;;;5073173;28;20080;-76
2024/01/27 03:48:28;;;;;;;25.95;19.55;;;12.60;85.50;;;;;;5073062;28;20059;-76
2024/01/27 03:50:54;;;;;;;26.73;19.38;;;12.60;85.70;;;;;;5072828;28;20060;-75
2024/01/27 03:53:20;;;;;;;25.02;18.42;;;12.60;85.60;;;;;;5072931;28;20036;-78
2024/01/27 03:55:45;;;;;;;25.48;19.00;;;12.60;85.60;;;;;;5072929;28;20036;-76
2024/01/27 03:58:11;;;;;;;25.33;18.85;;;12.60;85.70;;;;;;5072634;28;20048;-76
2024/01/27 04:00:37;;;;;;;29.90;19.35;;;12.60;85.90;;;;;;5072780;28;20032;-75
2024/01/27 04:03:03;;;;;;;26.30;19.30;;;12.60;85.70;;;;;;5072927;28;20040;-76
2024/01/27 04:05:29;;;;;;;28.52;19.20;;;12.50;85.50;;;;;;5072777;28;20035;-75
2024/01/27 04:07:55;;;;;;;30.77;21.17;;;12.50;85.70;;;;;;5072774;28;20029;-75
2024/01/27 04:10:22;;;;;;;31.45;19.85;;;12.50;86.50;;;;;;5072817;28;20772;-76
2024/01/27 04:12:47;;;;;;;26.75;20.00;;;12.40;86.00;;;;;;5072504;28;20547;-76
2024/01/27 04:15:13;;;;;;;28.27;18.92;;;12.40;86.10;;;;;;5072687;28;20104;-76
2024/01/27 04:17:40;;;;;;;27.60;19.85;;;12.40;86.00;;;;;;5072399;28;20217;-77
2024/01/27 04:20:06;;;;;;;30.10;20.27;;;12.40;86.20;;;;;;5072770;28;20028;-77
2024/01/27 04:22:33;;;;;;;27.60;20.25;;;12.40;86.20;;;;;;5072433;28;20028;-77
2024/01/27 04:24:59;;;;;;;27.33;19.67;;;12.30;86.10;;;;;;5072357;28;20470;-76
2024/01/27 04:27:26;;;;;;;31.13;20.02;;;12.30;86.20;;;;;;5072506;28;20043;-76
2024/01/27 04:29:52;;;;;;;28.70;19.80;;;12.20;86.40;;;;;;5072237;28;20119;-76
2024/01/27 04:32:18;;;;;;;26.73;19.40;;;12.30;86.30;;;;;;5072400;28;20063;-76
2024/01/27 04:34:43;;;;;;;29.85;19.80;;;12.30;86.30;;;;;;5054397;28;20040;-76
2024/01/27 04:37:09;;;;;;;28.67;20.48;;;12.30;86.40;;;;;;5073601;28;20033;-76
2024/01/27 04:39:35;;;;;;;26.80;20.55;;;12.30;86.10;;;;;;5074508;28;20039;-76
2024/01/27 04:42:01;;;;;;;29.88;20.02;;;12.30;86.30;;;;;;5072101;28;20024;-77
2024/01/27 04:44:27;;;;;;;26.08;20.30;;;12.30;86.40;;;;;;5072546;28;20029;-76
2024/01/27 04:46:52;;;;;;;28.20;20.73;;;12.40;86.50;;;;;;5072445;28;20048;-76
2024/01/27 04:49:18;;;;;;;28.88;20.20;;;12.30;86.30;;;;;;5072410;28;20036;-76
2024/01/27 04:51:44;;;;;;;27.08;19.40;;;12.30;86.30;;;;;;5072001;28;20048;-75
2024/01/27 04:54:10;;;;;;;26.15;19.67;;;12.30;86.40;;;;;;5072148;28;20568;-77
2024/01/27 04:56:36;;;;;;;26.85;20.00;;;12.30;86.30;;;;;;5072386;28;20040;-77
2024/01/27 04:59:02;;;;;;;28.05;20.63;;;12.30;86.30;;;;;;5072121;28;20041;-76
2024/01/27 05:01:28;;;;;;;27.75;18.98;;;12.30;86.40;;;;;;5072057;28;20480;-75
2024/01/27 05:03:54;;;;;;;25.77;18.95;;;12.20;86.50;;;;;;5071799;28;20103;-77
2024/01/27 05:06:19;;;;;;;30.70;20.35;;;12.20;86.40;;;;;;5072286;28;20108;-76
2024/01/27 05:08:45;;;;;;;30.60;19.83;;;12.10;86.50;;;;;;5072135;28;20028;-76
2024/01/27 05:11:11;;;;;;;33.83;20.45;;;12.10;86.60;;;;;;5072025;28;20033;-77
2024/01/27 05:13:39;;;;;;;28.15;21.08;;;12.10;86.70;;;;;;5072000;28;20047;-76
2024/01/27 05:16:05;;;;;;;26.35;20.40;;;12.00;87.20;;;;;;5071909;28;20036;-76
2024/01/27 05:18:31;;;;;;;27.88;19.65;;;12.00;87.00;;;;;;5071729;28;20094;-76
2024/01/27 05:20:57;;;;;;;29.38;21.52;;;12.00;87.00;;;;;;5071818;28;20033;-76
2024/01/27 05:23:23;;;;;;;32.33;22.08;;;11.90;87.10;;;;;;5071945;28;20063;-76
2024/01/27 05:25:49;;;;;;;28.90;20.90;;;11.80;87.30;;;;;;5071712;28;20095;-77
2024/01/27 05:28:14;;;;;;;29.27;20.33;;;11.80;87.40;;;;;;5071922;28;20036;-77
2024/01/27 05:30:40;;;;;;;25.45;20.15;;;11.70;88.00;;;;;;5071747;28;20391;-77
2024/01/27 05:33:06;;;;;;;29.40;20.98;;;11.70;87.40;;;;;;5072008;28;20128;-77
2024/01/27 05:35:31;;;;;;;30.00;20.90;;;11.70;87.50;;;;;;5071908;28;20032;-76
2024/01/27 05:37:57;;;;;;;31.65;21.42;;;11.70;87.60;;;;;;5071616;28;20563;-77
2024/01/27 05:40:23;;;;;;;29.98;21.23;;;11.70;87.70;;;;;;5071698;28;20653;-76
2024/01/27 05:42:49;;;;;;;29.25;21.20;;;11.70;88.20;;;;;;5071538;28;20025;-77
2024/01/27 05:45:15;;;;;;;30.42;21.85;;;11.70;88.30;;;;;;5071608;28;20098;-76
2024/01/27 05:47:41;;;;;;;28.75;21.70;;;11.60;88.00;;;;;;5071850;28;20033;-76
2024/01/27 05:50:08;;;;;;;29.25;20.50;;;11.70;88.50;;;;;;5071422;28;20533;-77
2024/01/27 05:52:34;;;;;;;28.63;21.20;;;11.70;88.20;;;;;;5072190;28;20075;-76
2024/01/27 05:55:02;;;;;;;26.95;21.63;;;11.70;88.30;;;;;;5075714;28;20033;-77
2024/01/27 05:57:28;;;;;;;33.00;22.33;;;11.70;88.40;;;;;;5075477;28;20363;-75
2024/01/27 05:59:54;;;;;;;27.10;21.70;;;11.70;88.20;;;;;;5075293;28;20036;-76
2024/01/27 06:02:19;;;;;;;31.73;21.63;;;11.70;88.50;;;;;;5075379;28;20501;-76
2024/01/27 06:04:45;;;;;;;28.50;22.30;;;11.60;88.60;;;;;;5074915;28;20024;-77
2024/01/27 06:07:11;;;;;;;32.95;22.98;;;11.60;88.50;;;;;;5075052;28;20033;-76
2024/01/27 06:09:39;;;;;;;35.50;23.15;;;11.60;88.40;;;;;;5075031;28;20094;-75
2024/01/27 06:12:06;;;;;;;30.85;21.95;;;11.50;88.70;;;;;;5075139;28;20528;-77
2024/01/27 06:14:31;;;;;;;32.15;23.73;;;11.60;89.00;;;;;;5074915;28;20029;-77
2024/01/27 06:16:57;;;;;;;31.60;22.60;;;11.50;88.80;;;;;;5074916;28;20453;-76
2024/01/27 06:19:23;;;;;;;32.42;22.25;;;11.50;88.90;;;;;;5074959;28;20124;-77
2024/01/27 06:21:49;;;;;;;34.50;21.70;;;11.50;89.00;;;;;;5075563;28;20108;-76
2024/01/27 06:24:15;;;;;;;32.88;22.33;;;11.50;89.20;;;;;;5076663;28;20044;-77
2024/01/27 06:26:40;;;;;;;28.58;21.73;;;11.40;89.20;;;;;;5074427;28;20052;-77
2024/01/27 06:29:06;;;;;;;33.75;21.80;;;11.40;89.20;;;;;;5074622;28;20025;-76
2024/01/27 06:31:32;;;;;;;31.65;22.60;;;11.40;89.10;;;;;;5056685;28;20044;-76
2024/01/27 06:33:57;;;;;;;31.70;22.00;;;11.40;89.40;;;;;;5074646;28;20029;-76
2024/01/27 06:36:24;;;;;;;31.25;21.95;;;11.40;89.40;;;;;;5074749;28;20471;-77
2024/01/27 06:38:51;;;;;;;30.42;22.30;;;11.40;89.40;;;;;;5074321;28;20041;-79
2024/01/27 06:41:16;;;;;;;31.45;22.10;;;11.40;89.40;;;;;;5074322;28;20036;-78
2024/01/27 06:43:42;;;;;;;42.35;29.98;;;11.40;89.20;;;;;;5074562;28;20029;-77
2024/01/27 06:46:08;;;;;;;33.60;25.52;;;11.50;89.40;;;;;;5074918;28;20035;-77
2024/01/27 06:48:34;;;;;;;30.02;22.17;;;11.50;89.30;;;;;;5074313;28;20461;-78
2024/01/27 06:51:00;;;;;;;28.98;21.38;;;11.60;89.40;;;;;;5074219;28;20042;-77
2024/01/27 06:53:26;;;;;;;28.13;21.58;;;11.60;89.10;;;;;;5074316;28;20111;-76
2024/01/27 06:55:51;;;;;;;32.67;21.70;;;11.70;89.20;;;;;;5074509;28;20067;-78
2024/01/27 06:58:17;;;;;;;33.13;22.65;;;11.70;89.10;;;;;;5074600;28;20044;-79
2024/01/27 07:00:44;;;;;;;31.73;20.83;;;11.80;89.10;;;;;;5074185;28;20036;-78
2024/01/27 07:03:10;;;;;;;29.38;20.70;;;12.00;88.70;;;;;;5074082;28;20101;-77
2024/01/27 07:05:40;;;;;;;28.30;21.02;;;12.40;88.10;;;;;;5073161;28;20047;-77
2024/01/27 07:08:07;;;;;;;32.47;20.98;;;12.70;87.30;;;;;;5073908;28;20043;-78
2024/01/27 07:10:33;;;;;;;29.00;20.92;;;13.00;86.30;;;;;;5074227;28;20104;-75
2024/01/27 07:12:59;;;;;;;32.33;22.23;;;13.40;85.70;;;;;;5074159;28;20033;-76
2024/01/27 07:15:25;;;;;;;31.83;20.50;;;13.80;84.90;;;;;;5074235;28;20071;-79
2024/01/27 07:17:51;;;;;;;27.88;19.83;;;14.30;83.80;;;;;;5074526;28;20083;-78
2024/01/27 07:20:17;;;;;;;30.05;19.40;;;14.70;82.90;;;;;;5074259;28;20444;-79
2024/01/27 07:22:43;;;;;;;29.80;20.60;;;15.10;82.00;;;;;;5074205;28;20045;-76
2024/01/27 07:25:10;;;;;;;28.02;20.70;;;15.30;80.80;;;;;;5074374;28;20047;-77
2024/01/27 07:27:36;;;;;;;34.65;22.38;;;15.50;80.20;;;;;;5073941;28;20032;-78
2024/01/27 07:30:03;;;;;;;30.98;22.13;;;15.80;79.50;;;;;;5074268;28;20025;-78
2024/01/27 07:32:28;;;;;;;29.58;22.10;;;16.20;79.00;;;;;;5055936;28;20040;-77
2024/01/27 07:34:54;;;;;;;31.30;22.35;;;16.40;78.30;;;;;;5073874;28;20025;-78
2024/01/27 07:37:20;;;;;;;45.45;31.17;;;16.70;77.50;;;;;;5073534;28;20045;-77
2024/01/27 07:39:48;;;;;;;31.00;22.75;;;16.80;78.00;;;;;;5073975;28;20211;-77
2024/01/27 07:42:15;;;;;;;28.80;20.58;;;17.10;76.70;;;;;;5073780;28;20028;-79
2024/01/27 07:44:42;;;;;;;31.83;20.95;;;17.00;76.10;;;;;;5073663;28;20024;-76
2024/01/27 07:47:08;;;;;;;32.35;21.42;;;17.30;76.00;;;;;;5073623;28;20033;-78
2024/01/27 07:49:34;;;;;;;31.45;20.63;;;16.80;75.40;;;;;;5073628;28;20040;-77
2024/01/27 07:52:00;;;;;;;32.08;20.50;;;15.90;76.20;;;;;;5071694;28;20033;-79
2024/01/27 07:54:26;;;;;;;27.23;19.73;;;15.30;77.60;;;;;;5073153;28;20108;-80
2024/01/27 07:56:51;;;;;;;33.92;23.05;;;14.80;78.50;;;;;;5073008;28;20020;-78
2024/01/27 07:59:17;;;;;;;30.38;20.63;;;14.40;79.40;;;;;;5072863;28;20397;-76
2024/01/27 08:01:43;;;;;;;32.83;22.48;;;14.20;80.20;;;;;;5072966;28;20025;-77
2024/01/27 08:04:09;;;;;;;30.08;22.30;;;14.00;80.70;;;;;;5075176;28;20111;-77
2024/01/27 08:06:45;;;;;;;31.83;22.10;;;13.90;81.10;;;;;;5073860;28;20054;-78
2024/01/27 08:09:11;;;;;;;29.23;22.55;;;13.70;81.50;;;;;;5072963;28;20115;-75
2024/01/27 08:11:37;;;;;;;29.08;21.75;;;13.60;81.80;;;;;;5073311;28;20103;-77
2024/01/27 08:14:03;;;;;;;29.35;22.52;;;13.50;82.00;;;;;;5072957;28;20074;-76
2024/01/27 08:16:28;;;;;;;32.70;22.83;;;13.50;82.20;;;;;;5054225;28;20037;-73
2024/01/27 08:18:54;;;;;;;31.67;22.83;;;13.40;82.10;;;;;;5065425;28;20124;-75
2024/01/27 08:21:20;;;;;;;33.90;23.27;;;13.30;82.40;;;;;;5058293;28;20029;-74
2024/01/27 08:23:45;;;;;;;31.35;22.40;;;13.30;82.60;;;;;;5072145;28;20071;-74
2024/01/27 08:26:11;;;;;;;31.58;22.63;;;13.20;82.60;;;;;;5072204;28;20062;-78
2024/01/27 08:28:37;;;;;;;31.77;23.15;;;13.20;82.60;;;;;;5072380;28;20040;-77
2024/01/27 08:31:03;;;;;;;30.38;22.50;;;13.30;82.50;;;;;;5072599;28;20021;-75
2024/01/27 08:33:28;;;;;;;29.92;21.77;;;13.30;82.60;;;;;;5072415;28;20040;-73
2024/01/27 08:35:54;;;;;;;29.90;22.15;;;13.30;82.40;;;;;;5072282;28;20025;-75
2024/01/27 08:38:20;;;;;;;32.60;22.38;;;13.20;82.40;;;;;;5072200;28;20150;-76
2024/01/27 08:40:45;;;;;;;32.08;22.95;;;13.10;82.40;;;;;;5066211;28;20098;-73
2024/01/27 08:43:11;;;;;;;30.75;21.92;;;13.10;82.60;;;;;;5067647;28;20040;-75
2024/01/27 08:45:38;;;;;;;28.60;21.63;;;13.10;82.70;;;;;;5070838;28;20083;-76
2024/01/27 08:48:04;;;;;;;30.63;21.00;;;13.10;82.60;;;;;;5070652;28;20119;-76
2024/01/27 08:50:30;;;;;;;27.92;20.17;;;13.10;82.80;;;;;;5071016;28;20094;-74
2024/01/27 08:52:56;;;;;;;30.52;20.70;;;13.10;82.50;;;;;;5071843;28;20033;-73
2024/01/27 08:55:23;;;;;;;28.02;21.35;;;13.10;82.40;;;;;;5071497;28;20028;-76
2024/01/27 08:57:52;;;;;;;28.80;20.23;;;13.20;82.30;;;;;;5071511;28;20138;-73
2024/01/27 09:00:18;;;;;;;29.33;20.60;;;13.20;82.50;;;;;;5071813;28;20445;-74
2024/01/27 09:02:44;;;;;;;29.83;20.80;;;13.20;82.30;;;;;;5071745;28;20035;-74
2024/01/27 09:05:10;;;;;;;25.92;19.40;;;13.20;82.30;;;;;;5071931;28;20063;-73
2024/01/27 09:07:36;;;;;;;29.75;20.08;;;13.20;82.00;;;;;;5072041;28;20060;-74
2024/01/27 09:10:02;;;;;;;30.75;21.25;;;13.20;82.10;;;;;;5071835;28;20434;-73
2024/01/27 09:12:28;;;;;;;27.10;20.20;;;13.30;82.10;;;;;;5072288;28;20033;-75
2024/01/27 09:14:54;;;;;;;32.47;21.33;;;13.30;82.00;;;;;;5071718;28;20411;-74
2024/01/27 09:17:22;;;;;;;30.13;21.52;;;13.30;82.00;;;;;;5070538;28;20040;-75
2024/01/27 09:19:48;;;;;;;37.40;24.02;;;13.30;81.90;;;;;;5053722;28;20039;-74
2024/01/27 09:22:14;;;;;;;31.05;23.48;;;13.30;81.90;;;;;;5071583;28;20033;-74
2024/01/27 09:24:40;;;;;;;40.47;25.92;;;13.40;82.00;;;;;;5068864;28;20036;-75
2024/01/27 09:27:06;;;;;;;41.05;26.83;;;13.40;81.90;;;;;;5071311;28;20433;-75
2024/01/27 09:29:32;;;;;;;40.15;28.50;;;13.50;81.70;;;;;;5075448;28;20036;-75
2024/01/27 09:31:58;;;;;;;44.50;28.38;;;13.60;81.80;;;;;;5075529;28;20037;-77
2024/01/27 09:34:23;;;;;;;40.50;28.35;;;13.60;81.60;;;;;;5054884;28;20094;-76
2024/01/27 09:36:49;;;;;;;45.65;29.02;;;13.60;81.60;;;;;;5066608;28;20429;-75
2024/01/27 09:39:15;;;;;;;42.47;28.98;;;13.70;81.60;;;;;;5074614;28;20124;-74
2024/01/27 09:41:42;;;;;;;42.50;28.45;;;13.70;81.50;;;;;;5075598;28;20029;-76
2024/01/27 09:44:07;;;;;;;37.33;27.10;;;13.80;81.40;;;;;;5072165;28;20078;-72
2024/01/27 09:46:33;;;;;;;36.20;24.05;;;13.90;81.20;;;;;;5071138;28;20336;-76
2024/01/27 09:48:59;;;;;;;35.67;24.98;;;14.00;81.20;;;;;;5070459;28;20079;-74
2024/01/27 09:51:26;;;;;;;36.25;23.75;;;14.10;80.90;;;;;;5074595;28;20322;-75
2024/01/27 09:53:52;;;;;;;32.38;23.25;;;14.10;80.70;;;;;;5074629;28;20060;-75
2024/01/27 09:56:18;;;;;;;36.70;24.15;;;14.20;80.70;;;;;;5075242;28;20056;-76
2024/01/27 09:58:45;;;;;;;33.17;22.80;;;14.20;80.60;;;;;;5075191;28;20482;-76
2024/01/27 10:01:12;;;;;;;32.85;23.63;;;14.30;80.60;;;;;;5075151;28;20486;-75
2024/01/27 10:03:41;;;;;;;30.52;23.70;;;14.40;80.60;;;;;;5074894;28;20044;-76
2024/01/27 10:06:11;;;;;;;32.97;23.52;;;14.40;80.30;;;;;;5074500;28;20024;-77
2024/01/27 10:08:36;;;;;;;33.53;23.50;;;14.50;80.30;;;;;;5075155;28;20036;-77
2024/01/27 10:11:09;;;;;;;33.95;23.05;;;14.60;80.00;;;;;;5079346;28;20050;-76
2024/01/27 10:13:36;;;;;;;28.27;21.00;;;14.60;79.80;;;;;;5077024;28;20166;-75
2024/01/27 10:16:09;;;;;;;28.98;20.65;;;14.70;79.60;;;;;;5076646;28;20033;-76
2024/01/27 10:18:35;;;;;;;25.80;20.42;;;14.80;79.60;;;;;;5075303;28;20123;-75
2024/01/27 10:21:16;;;;;;;30.05;21.35;;;14.90;79.50;;;;;;5075073;28;20029;-78
2024/01/27 10:23:42;;;;;;;27.90;20.27;;;14.90;79.40;;;;;;5057013;28;20086;-76
2024/01/27 10:26:11;;;;;;;26.83;19.83;;;15.00;79.10;;;;;;5075428;28;20044;-76
2024/01/27 10:28:36;;;;;;;28.75;18.75;;;15.10;78.80;;;;;;5074606;28;20478;-76
2024/01/27 10:31:12;;;;;;;23.23;17.98;;;15.10;78.50;;;;;;5074996;28;20036;-77
2024/01/27 10:33:38;;;;;;;26.02;17.92;;;15.10;78.50;;;;;;5074423;28;20090;-75
2024/01/27 10:36:04;;;;;;;23.60;16.45;;;15.20;77.90;;;;;;5074704;28;20115;-76
2024/01/27 10:38:37;;;;;;;24.58;15.98;;;15.10;77.80;;;;;;5074360;28;20106;-75
2024/01/27 10:41:07;;;;;;;24.87;15.20;;;15.20;77.60;;;;;;5074126;28;20430;-76
2024/01/27 10:43:35;;;;;;;22.08;15.57;;;15.20;77.50;;;;;;5074782;28;20041;-77
2024/01/27 10:46:06;;;;;;;22.15;14.27;;;15.30;77.40;;;;;;5075718;28;20032;-76
2024/01/27 10:48:37;;;;;;;20.80;13.73;;;15.30;77.00;;;;;;5075022;28;20032;-75
2024/01/27 10:51:10;;;;;;;21.38;15.07;;;15.30;77.10;;;;;;5074602;28;20055;-77
2024/01/27 10:53:39;;;;;;;20.30;14.10;;;15.40;76.80;;;;;;5074842;28;20067;-77
2024/01/27 10:56:09;;;;;;;23.58;14.68;;;15.50;76.70;;;;;;5074916;28;20474;-76
2024/01/27 10:58:40;;;;;;;23.27;15.48;;;15.50;76.30;;;;;;5073843;28;20047;-76
2024/01/27 11:01:10;;;;;;;21.15;14.82;;;15.60;76.40;;;;;;5056391;28;20094;-76
2024/01/27 11:03:41;;;;;;;23.33;16.05;;;15.70;76.10;;;;;;5074227;28;20044;-75
2024/01/27 11:06:08;;;;;;;24.80;14.98;;;15.80;75.90;;;;;;5073634;28;20040;-76
2024/01/27 11:08:34;;;;;;;22.15;14.88;;;15.80;75.80;;;;;;5073840;28;20071;-76
2024/01/27 11:11:01;;;;;;;26.13;16.85;;;15.80;75.50;;;;;;5073242;28;20024;-76
2024/01/27 11:13:31;;;;;;;20.92;13.75;;;15.90;75.50;;;;;;5073567;28;20033;-75
2024/01/27 11:16:00;;;;;;;19.38;12.43;;;15.90;74.80;;;;;;5073504;28;20044;-77
2024/01/27 11:18:27;;;;;;;17.00;12.60;;;15.90;74.70;;;;;;5073040;28;20407;-76
2024/01/27 11:20:54;;;;;;;20.42;14.15;;;15.80;74.70;;;;;;5073608;28;20037;-74
2024/01/27 11:23:20;;;;;;;18.35;13.38;;;15.90;74.90;;;;;;5073732;28;20033;-74
2024/01/27 11:25:45;;;;;;;17.83;13.80;;;16.00;74.90;;;;;;5073729;28;20089;-74
2024/01/27 11:28:15;;;;;;;25.88;15.65;;;16.10;74.60;;;;;;5073503;28;20032;-75
2024/01/27 11:30:46;;;;;;;25.67;16.45;;;16.20;74.20;;;;;;5073222;28;20033;-76
2024/01/27 11:33:12;;;;;;;23.80;15.63;;;16.20;74.30;;;;;;5073512;28;20115;-76
2024/01/27 11:35:38;;;;;;;22.30;14.77;;;16.20;74.00;;;;;;5073052;28;20457;-76
2024/01/27 11:38:04;;;;;;;20.67;14.35;;;16.20;73.70;;;;;;5072828;28;20064;-76
2024/01/27 11:40:29;;;;;;;20.60;13.80;;;16.20;73.60;;;;;;5055183;28;20038;-75
2024/01/27 11:43:00;;;;;;;23.55;14.80;;;16.30;73.40;;;;;;5073215;28;20041;-76
2024/01/27 11:45:29;;;;;;;19.42;14.88;;;16.30;73.00;;;;;;5076159;28;20394;-76
2024/01/27 11:47:56;;;;;;;20.92;13.68;;;16.30;73.10;;;;;;5072633;28;20082;-76
2024/01/27 11:50:22;;;;;;;24.73;14.15;;;16.30;73.20;;;;;;5072580;28;20105;-77
2024/01/27 11:52:49;;;;;;;18.67;13.40;;;16.30;73.10;;;;;;5072748;28;20047;-77
2024/01/27 11:55:15;;;;;;;18.25;13.15;;;16.40;72.90;;;;;;5072640;28;20029;-76
2024/01/27 11:57:42;;;;;;;21.77;15.20;;;16.40;72.80;;;;;;5072544;28;20043;-76
2024/01/27 12:00:11;;;;;;;23.95;15.52;;;16.50;72.60;;;;;;5072828;28;20557;-77
2024/01/27 12:02:40;;;;;;;21.55;13.85;;;16.60;72.70;;;;;;5072726;28;20044;-76
2024/01/27 12:05:07;;;;;;;20.17;14.60;;;16.80;72.50;;;;;;5072398;28;20036;-75
2024/01/27 12:07:33;;;;;;;21.35;14.15;;;16.80;72.80;;;;;;5072709;28;20106;-76
2024/01/27 12:09:59;;;;;;;18.48;13.35;;;16.90;72.20;;;;;;5072529;28;20063;-75
2024/01/27 12:12:24;;;;;;;24.48;14.40;;;17.00;71.80;;;;;;5072375;28;20480;-76
2024/01/27 12:14:51;;;;;;;20.95;14.35;;;17.00;71.80;;;;;;5070983;28;20032;-74
2024/01/27 12:17:18;;;;;;;23.33;14.52;;;17.00;71.50;;;;;;5044183;28;20436;-74
2024/01/27 12:19:51;;;;;;;21.63;14.38;;;17.10;71.40;;;;;;5061891;28;20045;-75
2024/01/27 12:22:25;;;;;;;21.45;14.80;;;17.20;71.40;;;;;;5072130;28;20037;-74
2024/01/27 12:24:52;;;;;;;22.27;13.35;;;17.30;71.20;;;;;;5077581;22;20139;-76